sensor_id;sensor_type;location;lat;lon;timestamp;temperature;humidity
21678;DHT22;11000;50.360;7.582;2022-11-11T00:01:42;8.90;99.90
21678;DHT22;11000;50.360;7.582;2022-11-11T00:04:03;9.00;99.90
21678;DHT22;11000;50.360;7.582;2022-11-11T00:06:23;9.00;99.90
21678;DHT22;11000;50.360;7.582;2022-11-11T00:08:46;9.00;99.90
21678;DHT22;11000;50.360;7.582;2022-11-11T00:11:10;8.90;99.90
21678;DHT22;11000;50.360;7.582;2022-11-11T00:13:32;8.90;99.90
21678;DHT22;11000;50.360;7.582;2022-11-11T00:15:53;8.80;99.90
21678;DHT22;11000;50.360;7.582;2022-11-11T00:18:13;8.70;99.90
21678;DHT22;11000;50.360;7.582;2022-11-11T00:20:52;8.80;99.90
21678;DHT22;11000;50.360;7.582;2022-11-11T00:23:31;8.70;99.90
21678;DHT22;11000;50.360;7.582;2022-11-11T00:26:12;8.80;99.90
21678;DHT22;11000;50.360;7.582;2022-11-11T00:28:33;8.80;99.90
21678;DHT22;11000;50.360;7.582;2022-11-11T00:31:05;8.80;99.90
21678;DHT22;11000;50.360;7.582;2022-11-11T00:33:25;8.90;99.90
21678;DHT22;11000;50.360;7.582;2022-11-11T00:35:46;8.90;99.90
21678;DHT22;11000;50.360;7.582;2022-11-11T00:38:13;8.90;99.90
21678;DHT22;11000;50.360;7.582;2022-11-11T00:40:52;8.80;99.90
21678;DHT22;11000;50.360;7.582;2022-11-11T00:43:13;8.80;99.90
21678;DHT22;11000;50.360;7.582;2022-11-11T00:45:33;8.70;99.90
21678;DHT22;11000;50.360;7.582;2022-11-11T00:47:54;8.70;99.90
21678;DHT22;11000;50.360;7.582;2022-11-11T00:50:33;8.80;99.90
21678;DHT22;11000;50.360;7.582;2022-11-11T00:53:30;8.80;99.90
21678;DHT22;11000;50.360;7.582;2022-11-11T00:55:56;8.80;99.90
21678;DHT22;11000;50.360;7.582;2022-11-11T00:58:16;8.90;99.90
21678;DHT22;11000;50.360;7.582;2022-11-11T01:00:37;8.90;99.90
21678;DHT22;11000;50.360;7.582;2022-11-11T01:02:57;9.00;99.90
21678;DHT22;11000;50.360;7.582;2022-11-11T01:05:18;9.00;99.90
21678;DHT22;11000;50.360;7.582;2022-11-11T01:07:39;9.00;99.90
21678;DHT22;11000;50.360;7.582;2022-11-11T01:09:59;9.00;99.90
21678;DHT22;11000;50.360;7.582;2022-11-11T01:12:20;9.00;99.90
21678;DHT22;11000;50.360;7.582;2022-11-11T01:14:40;9.00;99.90
21678;DHT22;11000;50.360;7.582;2022-11-11T01:17:01;9.00;99.90
21678;DHT22;11000;50.360;7.582;2022-11-11T01:19:24;9.10;99.90
21678;DHT22;11000;50.360;7.582;2022-11-11T01:21:44;9.00;99.90
21678;DHT22;11000;50.360;7.582;2022-11-11T01:24:05;9.00;99.90
21678;DHT22;11000;50.360;7.582;2022-11-11T01:26:27;9.00;99.90
21678;DHT22;11000;50.360;7.582;2022-11-11T01:28:49;9.00;99.90
21678;DHT22;11000;50.360;7.582;2022-11-11T01:31:12;9.00;99.90
21678;DHT22;11000;50.360;7.582;2022-11-11T01:33:33;9.00;99.90
21678;DHT22;11000;50.360;7.582;2022-11-11T01:35:54;9.00;99.90
21678;DHT22;11000;50.360;7.582;2022-11-11T01:38:14;8.90;99.90
21678;DHT22;11000;50.360;7.582;2022-11-11T01:40:46;8.90;99.90
21678;DHT22;11000;50.360;7.582;2022-11-11T01:45:48;8.90;99.90
21678;DHT22;11000;50.360;7.582;2022-11-11T01:48:18;8.90;99.90
21678;DHT22;11000;50.360;7.582;2022-11-11T01:51:29;8.90;99.90
21678;DHT22;11000;50.360;7.582;2022-11-11T01:53:58;8.90;99.90
21678;DHT22;11000;50.360;7.582;2022-11-11T01:56:20;8.80;99.90
21678;DHT22;11000;50.360;7.582;2022-11-11T01:58:41;8.80;99.90
21678;DHT22;11000;50.360;7.582;2022-11-11T02:01:02;8.80;99.90
21678;DHT22;11000;50.360;7.582;2022-11-11T02:03:24;8.80;99.90
21678;DHT22;11000;50.360;7.582;2022-11-11T02:05:45;8.90;99.90
21678;DHT22;11000;50.360;7.582;2022-11-11T02:08:30;8.80;99.90
21678;DHT22;11000;50.360;7.582;2022-11-11T02:10:52;8.80;99.90
21678;DHT22;11000;50.360;7.582;2022-11-11T02:13:14;8.90;99.90
21678;DHT22;11000;50.360;7.582;2022-11-11T02:15:53;8.90;99.90
21678;DHT22;11000;50.360;7.582;2022-11-11T02:18:14;8.90;99.90
21678;DHT22;11000;50.360;7.582;2022-11-11T02:20:41;8.90;99.90
21678;DHT22;11000;50.360;7.582;2022-11-11T02:25:45;8.90;99.90
21678;DHT22;11000;50.360;7.582;2022-11-11T02:28:06;8.90;99.90
21678;DHT22;11000;50.360;7.582;2022-11-11T02:30:27;8.90;99.90
21678;DHT22;11000;50.360;7.582;2022-11-11T02:32:49;8.80;99.90
21678;DHT22;11000;50.360;7.582;2022-11-11T02:35:18;8.80;99.90
21678;DHT22;11000;50.360;7.582;2022-11-11T02:37:42;8.80;99.90
21678;DHT22;11000;50.360;7.582;2022-11-11T02:40:04;8.80;99.90
21678;DHT22;11000;50.360;7.582;2022-11-11T02:42:28;8.90;99.90
21678;DHT22;11000;50.360;7.582;2022-11-11T02:44:49;8.80;99.90
21678;DHT22;11000;50.360;7.582;2022-11-11T02:47:09;8.80;99.90
21678;DHT22;11000;50.360;7.582;2022-11-11T02:49:30;8.90;99.90
21678;DHT22;11000;50.360;7.582;2022-11-11T02:51:51;8.90;99.90
21678;DHT22;11000;50.360;7.582;2022-11-11T02:54:11;8.90;99.90
21678;DHT22;11000;50.360;7.582;2022-11-11T02:56:32;8.90;99.90
21678;DHT22;11000;50.360;7.582;2022-11-11T02:59:11;9.00;99.90
21678;DHT22;11000;50.360;7.582;2022-11-11T03:01:31;9.00;99.90
21678;DHT22;11000;50.360;7.582;2022-11-11T03:03:52;9.00;99.90
21678;DHT22;11000;50.360;7.582;2022-11-11T03:06:12;8.90;99.90
21678;DHT22;11000;50.360;7.582;2022-11-11T03:08:33;8.90;99.90
21678;DHT22;11000;50.360;7.582;2022-11-11T03:10:54;8.90;99.90
21678;DHT22;11000;50.360;7.582;2022-11-11T03:13:14;8.90;99.90
21678;DHT22;11000;50.360;7.582;2022-11-11T03:15:34;8.90;99.90
21678;DHT22;11000;50.360;7.582;2022-11-11T03:17:55;9.00;99.90
21678;DHT22;11000;50.360;7.582;2022-11-11T03:20:17;8.90;99.90
21678;DHT22;11000;50.360;7.582;2022-11-11T03:23:05;8.90;99.90
21678;DHT22;11000;50.360;7.582;2022-11-11T03:25:25;8.80;99.90
21678;DHT22;11000;50.360;7.582;2022-11-11T03:27:58;8.80;99.90
21678;DHT22;11000;50.360;7.582;2022-11-11T03:30:18;8.80;99.90
21678;DHT22;11000;50.360;7.582;2022-11-11T03:32:39;8.80;99.90
21678;DHT22;11000;50.360;7.582;2022-11-11T03:34:59;8.70;99.90
21678;DHT22;11000;50.360;7.582;2022-11-11T03:37:20;8.70;99.90
21678;DHT22;11000;50.360;7.582;2022-11-11T03:39:59;8.70;99.90
21678;DHT22;11000;50.360;7.582;2022-11-11T03:42:19;8.60;99.90
21678;DHT22;11000;50.360;7.582;2022-11-11T03:44:40;8.50;99.90
21678;DHT22;11000;50.360;7.582;2022-11-11T03:47:00;8.50;99.90
21678;DHT22;11000;50.360;7.582;2022-11-11T03:49:21;8.50;99.90
21678;DHT22;11000;50.360;7.582;2022-11-11T03:51:41;8.50;99.90
21678;DHT22;11000;50.360;7.582;2022-11-11T03:54:02;8.50;99.90
21678;DHT22;11000;50.360;7.582;2022-11-11T03:56:22;8.50;99.90
21678;DHT22;11000;50.360;7.582;2022-11-11T03:58:43;8.40;99.90
21678;DHT22;11000;50.360;7.582;2022-11-11T04:01:03;8.30;99.90
21678;DHT22;11000;50.360;7.582;2022-11-11T04:03:44;8.30;99.90
21678;DHT22;11000;50.360;7.582;2022-11-11T04:06:23;8.40;99.90
21678;DHT22;11000;50.360;7.582;2022-11-11T04:09:02;8.40;99.90
21678;DHT22;11000;50.360;7.582;2022-11-11T04:11:44;8.30;99.90
21678;DHT22;11000;50.360;7.582;2022-11-11T04:14:09;8.30;99.90
21678;DHT22;11000;50.360;7.582;2022-11-11T04:16:48;8.30;99.90
21678;DHT22;11000;50.360;7.582;2022-11-11T04:19:08;8.40;99.90
21678;DHT22;11000;50.360;7.582;2022-11-11T04:21:48;8.30;99.90
21678;DHT22;11000;50.360;7.582;2022-11-11T04:24:17;8.30;99.90
21678;DHT22;11000;50.360;7.582;2022-11-11T04:26:58;8.20;99.90
21678;DHT22;11000;50.360;7.582;2022-11-11T04:29:19;8.30;99.90
21678;DHT22;11000;50.360;7.582;2022-11-11T04:31:49;8.30;99.90
21678;DHT22;11000;50.360;7.582;2022-11-11T04:34:28;8.30;99.90
21678;DHT22;11000;50.360;7.582;2022-11-11T04:36:48;8.30;99.90
21678;DHT22;11000;50.360;7.582;2022-11-11T04:39:09;8.30;99.90
21678;DHT22;11000;50.360;7.582;2022-11-11T04:41:48;8.20;99.90
21678;DHT22;11000;50.360;7.582;2022-11-11T04:44:08;8.10;99.90
21678;DHT22;11000;50.360;7.582;2022-11-11T04:46:48;8.10;99.90
21678;DHT22;11000;50.360;7.582;2022-11-11T04:49:08;8.10;99.90
21678;DHT22;11000;50.360;7.582;2022-11-11T04:51:29;8.20;99.90
21678;DHT22;11000;50.360;7.582;2022-11-11T04:54:09;8.20;99.90
21678;DHT22;11000;50.360;7.582;2022-11-11T04:56:29;8.10;99.90
21678;DHT22;11000;50.360;7.582;2022-11-11T04:59:09;8.20;99.90
21678;DHT22;11000;50.360;7.582;2022-11-11T05:01:35;8.20;99.90
21678;DHT22;11000;50.360;7.582;2022-11-11T05:04:15;8.10;99.90
21678;DHT22;11000;50.360;7.582;2022-11-11T05:06:35;8.20;99.90
21678;DHT22;11000;50.360;7.582;2022-11-11T05:09:34;8.20;99.90
21678;DHT22;11000;50.360;7.582;2022-11-11T05:11:55;8.10;99.90
21678;DHT22;11000;50.360;7.582;2022-11-11T05:14:15;8.10;99.90
21678;DHT22;11000;50.360;7.582;2022-11-11T05:16:57;8.10;99.90
21678;DHT22;11000;50.360;7.582;2022-11-11T05:19:37;8.10;99.90
21678;DHT22;11000;50.360;7.582;2022-11-11T05:22:24;8.00;99.90
21678;DHT22;11000;50.360;7.582;2022-11-11T05:24:45;8.00;99.90
21678;DHT22;11000;50.360;7.582;2022-11-11T05:27:25;8.00;99.90
21678;DHT22;11000;50.360;7.582;2022-11-11T05:29:46;8.10;99.90
21678;DHT22;11000;50.360;7.582;2022-11-11T05:32:07;8.00;99.90
21678;DHT22;11000;50.360;7.582;2022-11-11T05:34:28;8.00;99.90
21678;DHT22;11000;50.360;7.582;2022-11-11T05:36:49;7.90;99.90
21678;DHT22;11000;50.360;7.582;2022-11-11T05:39:09;7.90;99.90
21678;DHT22;11000;50.360;7.582;2022-11-11T05:41:30;7.80;99.90
21678;DHT22;11000;50.360;7.582;2022-11-11T05:43:50;7.70;99.90
21678;DHT22;11000;50.360;7.582;2022-11-11T05:46:11;7.60;99.90
21678;DHT22;11000;50.360;7.582;2022-11-11T05:48:31;7.60;99.90
21678;DHT22;11000;50.360;7.582;2022-11-11T05:50:52;7.60;99.90
21678;DHT22;11000;50.360;7.582;2022-11-11T05:53:12;7.60;99.90
21678;DHT22;11000;50.360;7.582;2022-11-11T05:55:33;7.60;99.90
21678;DHT22;11000;50.360;7.582;2022-11-11T05:57:53;7.60;99.90
21678;DHT22;11000;50.360;7.582;2022-11-11T06:00:14;7.60;99.90
21678;DHT22;11000;50.360;7.582;2022-11-11T06:02:35;7.60;99.90
21678;DHT22;11000;50.360;7.582;2022-11-11T06:04:55;7.40;99.90
21678;DHT22;11000;50.360;7.582;2022-11-11T06:07:16;7.50;99.90
21678;DHT22;11000;50.360;7.582;2022-11-11T06:09:36;7.40;99.90
21678;DHT22;11000;50.360;7.582;2022-11-11T06:11:57;7.30;99.90
21678;DHT22;11000;50.360;7.582;2022-11-11T06:14:18;7.30;99.90
21678;DHT22;11000;50.360;7.582;2022-11-11T06:16:38;7.40;99.90
21678;DHT22;11000;50.360;7.582;2022-11-11T06:18:59;7.50;99.90
21678;DHT22;11000;50.360;7.582;2022-11-11T06:21:19;7.40;99.90
21678;DHT22;11000;50.360;7.582;2022-11-11T06:23:40;7.40;99.90
21678;DHT22;11000;50.360;7.582;2022-11-11T06:26:00;7.30;99.90
21678;DHT22;11000;50.360;7.582;2022-11-11T06:28:33;7.30;99.90
21678;DHT22;11000;50.360;7.582;2022-11-11T06:30:54;7.30;99.90
21678;DHT22;11000;50.360;7.582;2022-11-11T06:33:15;7.20;99.90
21678;DHT22;11000;50.360;7.582;2022-11-11T06:35:36;7.00;99.90
21678;DHT22;11000;50.360;7.582;2022-11-11T06:37:57;7.00;99.90
21678;DHT22;11000;50.360;7.582;2022-11-11T06:40:18;7.00;99.90
21678;DHT22;11000;50.360;7.582;2022-11-11T06:42:38;6.90;99.90
21678;DHT22;11000;50.360;7.582;2022-11-11T06:44:59;7.00;99.90
21678;DHT22;11000;50.360;7.582;2022-11-11T06:47:19;7.00;99.90
21678;DHT22;11000;50.360;7.582;2022-11-11T06:49:39;7.00;99.90
21678;DHT22;11000;50.360;7.582;2022-11-11T06:52:00;7.00;99.90
21678;DHT22;11000;50.360;7.582;2022-11-11T06:54:20;7.10;99.90
21678;DHT22;11000;50.360;7.582;2022-11-11T06:56:42;7.10;99.90
21678;DHT22;11000;50.360;7.582;2022-11-11T06:59:03;7.10;99.90
21678;DHT22;11000;50.360;7.582;2022-11-11T07:01:23;7.10;99.90
21678;DHT22;11000;50.360;7.582;2022-11-11T07:03:44;7.10;99.90
21678;DHT22;11000;50.360;7.582;2022-11-11T07:06:05;7.10;99.90
21678;DHT22;11000;50.360;7.582;2022-11-11T07:08:25;7.10;99.90
21678;DHT22;11000;50.360;7.582;2022-11-11T07:10:47;7.10;99.90
21678;DHT22;11000;50.360;7.582;2022-11-11T07:13:08;7.10;99.90
21678;DHT22;11000;50.360;7.582;2022-11-11T07:15:30;7.10;99.90
21678;DHT22;11000;50.360;7.582;2022-11-11T07:17:50;7.10;99.90
21678;DHT22;11000;50.360;7.582;2022-11-11T07:20:11;7.00;99.90
21678;DHT22;11000;50.360;7.582;2022-11-11T07:22:35;7.00;99.90
21678;DHT22;11000;50.360;7.582;2022-11-11T07:24:55;7.10;99.90
21678;DHT22;11000;50.360;7.582;2022-11-11T07:27:16;7.00;99.90
21678;DHT22;11000;50.360;7.582;2022-11-11T07:29:36;7.00;99.90
21678;DHT22;11000;50.360;7.582;2022-11-11T07:31:57;7.00;99.90
21678;DHT22;11000;50.360;7.582;2022-11-11T07:34:17;6.90;99.90
21678;DHT22;11000;50.360;7.582;2022-11-11T07:36:38;7.00;99.90
21678;DHT22;11000;50.360;7.582;2022-11-11T07:38:58;6.90;99.90
21678;DHT22;11000;50.360;7.582;2022-11-11T07:41:19;7.00;99.90
21678;DHT22;11000;50.360;7.582;2022-11-11T07:43:39;7.10;99.90
21678;DHT22;11000;50.360;7.582;2022-11-11T07:46:00;7.10;99.90
21678;DHT22;11000;50.360;7.582;2022-11-11T07:48:20;7.00;99.90
21678;DHT22;11000;50.360;7.582;2022-11-11T07:50:41;6.90;99.90
21678;DHT22;11000;50.360;7.582;2022-11-11T07:53:01;7.00;99.90
21678;DHT22;11000;50.360;7.582;2022-11-11T07:55:22;7.00;99.90
21678;DHT22;11000;50.360;7.582;2022-11-11T07:57:43;7.00;99.90
21678;DHT22;11000;50.360;7.582;2022-11-11T08:00:04;7.10;99.90
21678;DHT22;11000;50.360;7.582;2022-11-11T08:02:25;7.20;99.90
21678;DHT22;11000;50.360;7.582;2022-11-11T08:04:45;7.00;99.90
21678;DHT22;11000;50.360;7.582;2022-11-11T08:07:07;6.90;99.90
21678;DHT22;11000;50.360;7.582;2022-11-11T08:09:28;7.00;99.90
21678;DHT22;11000;50.360;7.582;2022-11-11T08:11:48;6.90;99.90
21678;DHT22;11000;50.360;7.582;2022-11-11T08:14:27;7.00;99.90
21678;DHT22;11000;50.360;7.582;2022-11-11T08:16:48;7.10;99.90
21678;DHT22;11000;50.360;7.582;2022-11-11T08:19:08;7.00;99.90
21678;DHT22;11000;50.360;7.582;2022-11-11T08:21:29;6.90;99.90
21678;DHT22;11000;50.360;7.582;2022-11-11T08:23:50;7.00;99.90
21678;DHT22;11000;50.360;7.582;2022-11-11T08:26:11;7.00;99.90
21678;DHT22;11000;50.360;7.582;2022-11-11T08:28:32;7.00;99.90
21678;DHT22;11000;50.360;7.582;2022-11-11T08:30:54;7.10;99.90
21678;DHT22;11000;50.360;7.582;2022-11-11T08:33:17;7.20;99.90
21678;DHT22;11000;50.360;7.582;2022-11-11T08:35:37;7.30;99.90
21678;DHT22;11000;50.360;7.582;2022-11-11T08:38:01;7.20;99.90
21678;DHT22;11000;50.360;7.582;2022-11-11T08:40:22;7.10;99.90
21678;DHT22;11000;50.360;7.582;2022-11-11T08:42:42;7.20;99.90
21678;DHT22;11000;50.360;7.582;2022-11-11T08:45:03;7.30;99.90
21678;DHT22;11000;50.360;7.582;2022-11-11T08:47:24;7.30;99.90
21678;DHT22;11000;50.360;7.582;2022-11-11T08:49:44;7.50;99.90
21678;DHT22;11000;50.360;7.582;2022-11-11T08:52:05;7.50;99.90
21678;DHT22;11000;50.360;7.582;2022-11-11T08:54:25;7.40;99.90
21678;DHT22;11000;50.360;7.582;2022-11-11T08:56:46;7.40;99.90
21678;DHT22;11000;50.360;7.582;2022-11-11T08:59:06;7.40;99.90
21678;DHT22;11000;50.360;7.582;2022-11-11T09:01:29;7.50;99.90
21678;DHT22;11000;50.360;7.582;2022-11-11T09:03:49;7.70;99.90
21678;DHT22;11000;50.360;7.582;2022-11-11T09:06:11;7.80;99.90
21678;DHT22;11000;50.360;7.582;2022-11-11T09:08:31;7.60;99.90
21678;DHT22;11000;50.360;7.582;2022-11-11T09:10:52;7.70;99.90
21678;DHT22;11000;50.360;7.582;2022-11-11T09:13:12;7.60;99.90
21678;DHT22;11000;50.360;7.582;2022-11-11T09:15:34;7.70;99.90
21678;DHT22;11000;50.360;7.582;2022-11-11T09:17:54;7.70;99.90
21678;DHT22;11000;50.360;7.582;2022-11-11T09:20:15;7.70;99.90
21678;DHT22;11000;50.360;7.582;2022-11-11T09:22:44;7.80;99.90
21678;DHT22;11000;50.360;7.582;2022-11-11T09:25:05;7.90;99.90
21678;DHT22;11000;50.360;7.582;2022-11-11T09:27:26;7.70;99.90
21678;DHT22;11000;50.360;7.582;2022-11-11T09:29:46;7.80;99.90
21678;DHT22;11000;50.360;7.582;2022-11-11T09:32:07;7.80;99.90
21678;DHT22;11000;50.360;7.582;2022-11-11T09:34:27;7.90;99.90
21678;DHT22;11000;50.360;7.582;2022-11-11T09:36:48;8.00;99.90
21678;DHT22;11000;50.360;7.582;2022-11-11T09:39:09;7.90;99.90
21678;DHT22;11000;50.360;7.582;2022-11-11T09:47:26;8.00;99.90
21678;DHT22;11000;50.360;7.582;2022-11-11T09:50:10;8.20;99.90
21678;DHT22;11000;50.360;7.582;2022-11-11T09:52:45;8.20;99.90
21678;DHT22;11000;50.360;7.582;2022-11-11T09:55:29;8.30;99.90
21678;DHT22;11000;50.360;7.582;2022-11-11T09:57:55;8.20;99.90
21678;DHT22;11000;50.360;7.582;2022-11-11T10:00:23;8.30;99.90
21678;DHT22;11000;50.360;7.582;2022-11-11T10:03:00;8.30;99.90
21678;DHT22;11000;50.360;7.582;2022-11-11T10:05:43;8.50;99.90
21678;DHT22;11000;50.360;7.582;2022-11-11T10:08:17;8.60;99.90
21678;DHT22;11000;50.360;7.582;2022-11-11T10:10:51;8.70;99.90
21678;DHT22;11000;50.360;7.582;2022-11-11T10:13:22;8.80;99.90
21678;DHT22;11000;50.360;7.582;2022-11-11T10:16:05;8.90;99.90
21678;DHT22;11000;50.360;7.582;2022-11-11T10:18:33;9.00;99.90
21678;DHT22;11000;50.360;7.582;2022-11-11T10:20:58;9.10;99.90
21678;DHT22;11000;50.360;7.582;2022-11-11T10:23:31;9.30;99.90
21678;DHT22;11000;50.360;7.582;2022-11-11T10:25:55;9.30;99.90
21678;DHT22;11000;50.360;7.582;2022-11-11T10:28:19;9.20;99.90
21678;DHT22;11000;50.360;7.582;2022-11-11T10:30:40;9.10;99.90
21678;DHT22;11000;50.360;7.582;2022-11-11T10:35:51;9.10;99.90
21678;DHT22;11000;50.360;7.582;2022-11-11T10:40:53;9.20;99.90
21678;DHT22;11000;50.360;7.582;2022-11-11T10:46:32;9.30;99.90
21678;DHT22;11000;50.360;7.582;2022-11-11T10:48:51;9.20;99.90
21678;DHT22;11000;50.360;7.582;2022-11-11T10:51:13;9.30;99.90
21678;DHT22;11000;50.360;7.582;2022-11-11T10:56:13;9.40;99.90
21678;DHT22;11000;50.360;7.582;2022-11-11T10:58:40;9.60;99.90
21678;DHT22;11000;50.360;7.582;2022-11-11T11:01:05;9.70;99.90
21678;DHT22;11000;50.360;7.582;2022-11-11T11:03:34;9.70;99.90
21678;DHT22;11000;50.360;7.582;2022-11-11T11:08:44;9.90;99.90
21678;DHT22;11000;50.360;7.582;2022-11-11T11:11:43;10.00;99.90
21678;DHT22;11000;50.360;7.582;2022-11-11T11:14:22;10.10;99.90
21678;DHT22;11000;50.360;7.582;2022-11-11T11:16:48;10.10;99.90
21678;DHT22;11000;50.360;7.582;2022-11-11T11:19:18;10.20;99.90
21678;DHT22;11000;50.360;7.582;2022-11-11T11:24:25;10.40;99.90
21678;DHT22;11000;50.360;7.582;2022-11-11T11:26:51;10.50;99.90
21678;DHT22;11000;50.360;7.582;2022-11-11T11:29:12;10.60;99.90
21678;DHT22;11000;50.360;7.582;2022-11-11T11:31:37;10.70;99.90
21678;DHT22;11000;50.360;7.582;2022-11-11T11:33:58;10.60;99.90
21678;DHT22;11000;50.360;7.582;2022-11-11T11:36:19;10.60;99.90
21678;DHT22;11000;50.360;7.582;2022-11-11T11:38:42;10.70;99.90
21678;DHT22;11000;50.360;7.582;2022-11-11T11:41:03;10.80;99.90
21678;DHT22;11000;50.360;7.582;2022-11-11T11:43:34;10.80;99.90
21678;DHT22;11000;50.360;7.582;2022-11-11T11:45:57;10.90;99.90
21678;DHT22;11000;50.360;7.582;2022-11-11T11:50:51;11.00;99.90
21678;DHT22;11000;50.360;7.582;2022-11-11T11:56:37;11.20;99.90
21678;DHT22;11000;50.360;7.582;2022-11-11T11:59:10;11.20;99.90
21678;DHT22;11000;50.360;7.582;2022-11-11T12:01:38;11.30;99.90
21678;DHT22;11000;50.360;7.582;2022-11-11T12:04:19;11.30;99.90
21678;DHT22;11000;50.360;7.582;2022-11-11T12:15:33;11.80;99.90
21678;DHT22;11000;50.360;7.582;2022-11-11T12:23:48;12.00;99.90
21678;DHT22;11000;50.360;7.582;2022-11-11T12:29:46;12.70;99.90
21678;DHT22;11000;50.360;7.582;2022-11-11T12:32:31;12.70;99.90
21678;DHT22;11000;50.360;7.582;2022-11-11T12:35:16;12.60;99.90
21678;DHT22;11000;50.360;7.582;2022-11-11T12:37:52;12.70;99.90
21678;DHT22;11000;50.360;7.582;2022-11-11T12:40:23;12.70;99.90
21678;DHT22;11000;50.360;7.582;2022-11-11T12:45:47;12.60;99.90
21678;DHT22;11000;50.360;7.582;2022-11-11T12:49:04;12.60;99.90
21678;DHT22;11000;50.360;7.582;2022-11-11T12:57:20;12.90;99.90
21678;DHT22;11000;50.360;7.582;2022-11-11T13:05:20;13.40;99.90
21678;DHT22;11000;50.360;7.582;2022-11-11T13:13:42;14.00;99.90
21678;DHT22;11000;50.360;7.582;2022-11-11T13:16:08;14.10;99.90
21678;DHT22;11000;50.360;7.582;2022-11-11T13:18:58;14.20;99.90
21678;DHT22;11000;50.360;7.582;2022-11-11T13:21:26;14.20;99.90
21678;DHT22;11000;50.360;7.582;2022-11-11T13:23:49;14.40;99.90
21678;DHT22;11000;50.360;7.582;2022-11-11T13:26:37;14.40;99.90
21678;DHT22;11000;50.360;7.582;2022-11-11T13:31:57;14.40;99.90
21678;DHT22;11000;50.360;7.582;2022-11-11T13:34:20;14.60;99.90
21678;DHT22;11000;50.360;7.582;2022-11-11T13:36:45;14.70;99.90
21678;DHT22;11000;50.360;7.582;2022-11-11T13:39:28;15.00;99.90
21678;DHT22;11000;50.360;7.582;2022-11-11T13:41:52;15.20;99.90
21678;DHT22;11000;50.360;7.582;2022-11-11T13:44:22;15.20;99.90
21678;DHT22;11000;50.360;7.582;2022-11-11T13:46:45;15.10;99.90
21678;DHT22;11000;50.360;7.582;2022-11-11T13:51:43;15.10;99.90
21678;DHT22;11000;50.360;7.582;2022-11-11T13:54:06;15.00;99.90
21678;DHT22;11000;50.360;7.582;2022-11-11T13:56:42;15.20;99.90
21678;DHT22;11000;50.360;7.582;2022-11-11T13:59:05;15.20;99.90
21678;DHT22;11000;50.360;7.582;2022-11-11T14:01:33;15.30;99.90
21678;DHT22;11000;50.360;7.582;2022-11-11T14:03:58;15.40;99.90
21678;DHT22;11000;50.360;7.582;2022-11-11T14:11:28;15.70;99.90
21678;DHT22;11000;50.360;7.582;2022-11-11T14:13:54;15.50;99.90
21678;DHT22;11000;50.360;7.582;2022-11-11T14:18:55;15.50;99.90
21678;DHT22;11000;50.360;7.582;2022-11-11T14:21:51;15.60;99.90
21678;DHT22;11000;50.360;7.582;2022-11-11T14:24:30;15.30;99.90
21678;DHT22;11000;50.360;7.582;2022-11-11T14:27:01;15.10;99.90
21678;DHT22;11000;50.360;7.582;2022-11-11T14:29:26;15.10;99.90
21678;DHT22;11000;50.360;7.582;2022-11-11T14:32:42;15.00;99.90
21678;DHT22;11000;50.360;7.582;2022-11-11T14:35:12;15.00;99.90
21678;DHT22;11000;50.360;7.582;2022-11-11T14:38:27;14.90;99.90
21678;DHT22;11000;50.360;7.582;2022-11-11T14:40:40;14.70;99.90
21678;DHT22;11000;50.360;7.582;2022-11-11T14:43:36;14.70;99.90
21678;DHT22;11000;50.360;7.582;2022-11-11T14:46:03;14.60;99.90
21678;DHT22;11000;50.360;7.582;2022-11-11T14:48:59;14.60;99.90
21678;DHT22;11000;50.360;7.582;2022-11-11T14:51:47;14.50;99.90
21678;DHT22;11000;50.360;7.582;2022-11-11T14:54:28;14.50;99.90
21678;DHT22;11000;50.360;7.582;2022-11-11T14:56:56;14.40;99.90
21678;DHT22;11000;50.360;7.582;2022-11-11T14:59:19;14.40;99.90
21678;DHT22;11000;50.360;7.582;2022-11-11T15:01:43;14.40;99.90
21678;DHT22;11000;50.360;7.582;2022-11-11T15:04:05;14.30;99.90
21678;DHT22;11000;50.360;7.582;2022-11-11T15:06:44;14.20;99.90
21678;DHT22;11000;50.360;7.582;2022-11-11T15:12:19;14.10;99.90
21678;DHT22;11000;50.360;7.582;2022-11-11T15:14:56;14.00;99.90
21678;DHT22;11000;50.360;7.582;2022-11-11T15:20:18;13.80;99.90
21678;DHT22;11000;50.360;7.582;2022-11-11T15:23:16;13.70;99.90
21678;DHT22;11000;50.360;7.582;2022-11-11T15:25:59;13.60;99.90
21678;DHT22;11000;50.360;7.582;2022-11-11T15:33:45;13.50;99.90
21678;DHT22;11000;50.360;7.582;2022-11-11T15:36:30;13.40;99.90
21678;DHT22;11000;50.360;7.582;2022-11-11T15:38:53;13.40;99.90
21678;DHT22;11000;50.360;7.582;2022-11-11T15:41:23;13.30;99.90
21678;DHT22;11000;50.360;7.582;2022-11-11T15:43:45;13.20;99.90
21678;DHT22;11000;50.360;7.582;2022-11-11T15:46:06;13.20;99.90
21678;DHT22;11000;50.360;7.582;2022-11-11T15:48:32;13.00;99.90
21678;DHT22;11000;50.360;7.582;2022-11-11T15:50:54;12.90;99.90
21678;DHT22;11000;50.360;7.582;2022-11-11T15:53:22;12.80;99.90
21678;DHT22;11000;50.360;7.582;2022-11-11T15:55:51;12.70;99.90
21678;DHT22;11000;50.360;7.582;2022-11-11T15:58:23;12.50;99.90
21678;DHT22;11000;50.360;7.582;2022-11-11T16:00:45;12.40;99.90
21678;DHT22;11000;50.360;7.582;2022-11-11T16:03:24;12.30;99.90
21678;DHT22;11000;50.360;7.582;2022-11-11T16:05:47;12.10;99.90
21678;DHT22;11000;50.360;7.582;2022-11-11T16:08:08;12.10;99.90
21678;DHT22;11000;50.360;7.582;2022-11-11T16:10:36;12.10;99.90
21678;DHT22;11000;50.360;7.582;2022-11-11T16:13:12;12.20;99.90
21678;DHT22;11000;50.360;7.582;2022-11-11T16:20:56;12.10;99.90
21678;DHT22;11000;50.360;7.582;2022-11-11T16:23:20;12.10;99.90
21678;DHT22;11000;50.360;7.582;2022-11-11T16:25:41;12.10;99.90
21678;DHT22;11000;50.360;7.582;2022-11-11T16:28:02;12.10;99.90
21678;DHT22;11000;50.360;7.582;2022-11-11T16:30:30;12.10;99.90
21678;DHT22;11000;50.360;7.582;2022-11-11T16:32:52;12.00;99.90
21678;DHT22;11000;50.360;7.582;2022-11-11T16:35:45;12.00;99.90
21678;DHT22;11000;50.360;7.582;2022-11-11T16:38:06;11.90;99.90
21678;DHT22;11000;50.360;7.582;2022-11-11T16:42:51;11.90;99.90
21678;DHT22;11000;50.360;7.582;2022-11-11T16:45:21;11.90;99.90
21678;DHT22;11000;50.360;7.582;2022-11-11T16:47:45;11.90;99.90
21678;DHT22;11000;50.360;7.582;2022-11-11T16:50:18;11.90;99.90
21678;DHT22;11000;50.360;7.582;2022-11-11T16:52:56;11.80;99.90
21678;DHT22;11000;50.360;7.582;2022-11-11T16:57:51;11.70;99.90
21678;DHT22;11000;50.360;7.582;2022-11-11T17:00:21;11.60;99.90
21678;DHT22;11000;50.360;7.582;2022-11-11T17:02:42;11.60;99.90
21678;DHT22;11000;50.360;7.582;2022-11-11T17:05:03;11.60;99.90
21678;DHT22;11000;50.360;7.582;2022-11-11T17:07:28;11.50;99.90
21678;DHT22;11000;50.360;7.582;2022-11-11T17:09:50;11.40;99.90
21678;DHT22;11000;50.360;7.582;2022-11-11T17:12:11;11.30;99.90
21678;DHT22;11000;50.360;7.582;2022-11-11T17:14:37;11.20;99.90
21678;DHT22;11000;50.360;7.582;2022-11-11T17:16:58;11.20;99.90
21678;DHT22;11000;50.360;7.582;2022-11-11T17:19:19;11.20;99.90
21678;DHT22;11000;50.360;7.582;2022-11-11T17:21:41;11.20;99.90
21678;DHT22;11000;50.360;7.582;2022-11-11T17:24:01;11.10;99.90